Time;durP1;ratioP1;P1;durP2;ratioP2;P2;SDS_P1;SDS_P2;PMS_P1;PMS_P2;Temp;Humidity;BMP_temperature;BMP_pressure;BME280_temperature;BME280_humidity;BME280_pressure;Samples;Min_cycle;Max_cycle;Signal;HPM_P1;HPM_P2
2021/09/19 00:01:07;;;;;;;11.88;10.57;;;;;;;;;;6246843;28;20164;-75
2021/09/19 00:04:10;;;;;;;14.73;11.55;;;;;;;;;;6248141;28;20065;-74
2021/09/19 00:07:11;;;;;;;13.63;11.57;;;;;;;;;;6245807;28;20120;-74
2021/09/19 00:10:15;;;;;;;14.88;12.20;;;;;;;;;;6250472;28;20519;-80
2021/09/19 00:13:16;;;;;;;16.35;12.23;;;;;;;;;;6246862;28;20548;-74
2021/09/19 00:16:19;;;;;;;18.35;14.23;;;;;;;;;;6247705;28;20599;-74
2021/09/19 00:19:23;;;;;;;17.38;13.90;;;;;;;;;;6247397;28;20053;-75
2021/09/19 00:22:24;;;;;;;20.20;16.15;;;;;;;;;;6247925;28;20126;-80
2021/09/19 00:25:26;;;;;;;17.60;14.15;;;;;;;;;;6250160;28;20115;-74
2021/09/19 00:28:27;;;;;;;16.77;13.57;;;;;;;;;;6249485;28;20125;-74
2021/09/19 00:31:29;;;;;;;18.05;14.15;;;;;;;;;;6247419;28;20038;-74
2021/09/19 00:34:32;;;;;;;18.92;13.57;;;;;;;;;;6239547;28;20073;-73
2021/09/19 00:37:34;;;;;;;16.02;13.40;;;;;;;;;;6221258;28;20132;-74
2021/09/19 00:40:35;;;;;;;18.48;14.88;;;;;;;;;;6234119;28;20627;-75
2021/09/19 00:43:37;;;;;;;19.60;15.05;;;;;;;;;;6247158;28;20677;-73
2021/09/19 00:46:39;;;;;;;20.92;15.57;;;;;;;;;;6236301;28;20134;-73
2021/09/19 00:49:42;;;;;;;20.08;16.70;;;;;;;;;;6243321;28;20056;-74
2021/09/19 00:52:45;;;;;;;25.17;17.30;;;;;;;;;;6239721;28;20335;-74
2021/09/19 00:55:50;;;;;;;27.38;18.75;;;;;;;;;;6240351;28;20076;-74
2021/09/19 00:58:52;;;;;;;21.27;17.55;;;;;;;;;;6245627;28;20132;-74
2021/09/19 01:01:54;;;;;;;24.23;18.57;;;;;;;;;;6239285;28;20179;-74
2021/09/19 01:04:58;;;;;;;24.13;18.52;;;;;;;;;;6247891;28;20496;-76
2021/09/19 01:07:59;;;;;;;;;;;;;;;;;;6243093;28;20045;-75
2021/09/19 01:11:01;;;;;;;26.90;18.52;;;;;;;;;;6244792;28;20018;-76
2021/09/19 01:14:03;;;;;;;21.52;17.27;;;;;;;;;;6246123;28;20203;-75
2021/09/19 01:17:05;;;;;;;26.33;18.33;;;;;;;;;;6239858;28;20128;-77
2021/09/19 01:20:13;;;;;;;22.60;18.73;;;;;;;;;;6246496;28;20132;-75
2021/09/19 01:23:16;;;;;;;23.38;18.65;;;;;;;;;;6232624;28;20610;-73
2021/09/19 01:26:19;;;;;;;23.60;18.83;;;;;;;;;;6237882;28;20520;-73
2021/09/19 01:29:20;;;;;;;23.55;19.30;;;;;;;;;;6244042;28;20045;-73
2021/09/19 01:32:22;;;;;;;22.48;18.40;;;;;;;;;;6233903;28;20152;-74
2021/09/19 01:35:24;;;;;;;23.33;18.98;;;;;;;;;;6230984;28;20443;-75
2021/09/19 01:38:26;;;;;;;25.27;18.15;;;;;;;;;;6239924;28;20049;-73
2021/09/19 01:41:29;;;;;;;20.58;18.38;;;;;;;;;;6235206;28;20038;-73
2021/09/19 01:44:31;;;;;;;21.80;18.00;;;;;;;;;;6243706;28;20219;-72
2021/09/19 01:47:32;;;;;;;20.30;16.77;;;;;;;;;;6232366;28;20045;-72
2021/09/19 01:50:34;;;;;;;20.88;18.15;;;;;;;;;;6233976;28;20072;-76
2021/09/19 01:53:36;;;;;;;24.50;17.48;;;;;;;;;;6243305;28;20681;-73
2021/09/19 01:56:39;;;;;;;20.05;17.83;;;;;;;;;;6234250;28;20164;-72
2021/09/19 01:59:40;;;;;;;23.02;17.10;;;;;;;;;;6243336;28;20053;-72
2021/09/19 02:02:42;;;;;;;19.65;17.40;;;;;;;;;;6235048;28;20061;-72
2021/09/19 02:05:43;;;;;;;24.95;17.40;;;;;;;;;;6236511;28;20049;-76
2021/09/19 02:08:46;;;;;;;22.80;17.65;;;;;;;;;;6244047;28;20061;-73
2021/09/19 02:11:49;;;;;;;25.13;18.48;;;;;;;;;;6243574;28;20046;-73
2021/09/19 02:14:51;;;;;;;21.63;18.65;;;;;;;;;;6254263;28;20105;-77
2021/09/19 02:17:52;;;;;;;21.42;18.90;;;;;;;;;;6238218;28;20120;-73
2021/09/19 02:20:54;;;;;;;20.75;18.55;;;;;;;;;;6235871;28;20126;-73
2021/09/19 02:23:55;;;;;;;21.23;18.65;;;;;;;;;;6244123;28;20140;-73
2021/09/19 02:26:58;;;;;;;23.80;18.40;;;;;;;;;;6234545;28;20128;-72
2021/09/19 02:30:00;;;;;;;22.83;18.23;;;;;;;;;;6238557;28;20196;-72
2021/09/19 02:33:02;;;;;;;23.10;18.33;;;;;;;;;;6230324;28;20056;-72
2021/09/19 02:36:04;;;;;;;21.48;18.65;;;;;;;;;;6232962;28;20481;-72
2021/09/19 02:39:05;;;;;;;23.85;19.02;;;;;;;;;;6243817;28;20045;-73
2021/09/19 02:42:09;;;;;;;20.17;18.00;;;;;;;;;;6236850;28;20084;-73
2021/09/19 02:45:12;;;;;;;23.92;18.42;;;;;;;;;;6242236;28;20064;-73
2021/09/19 02:48:13;;;;;;;24.33;18.83;;;;;;;;;;6227868;28;21453;-73
2021/09/19 02:51:15;;;;;;;19.15;17.15;;;;;;;;;;6235968;28;22170;-72
2021/09/19 02:54:16;;;;;;;21.75;17.70;;;;;;;;;;6240038;28;20183;-73
2021/09/19 02:57:19;;;;;;;22.20;17.67;;;;;;;;;;6235166;28;20128;-73
2021/09/19 03:00:22;;;;;;;20.30;17.00;;;;;;;;;;6237457;28;20179;-75
2021/09/19 03:03:23;;;;;;;21.75;17.17;;;;;;;;;;6239513;28;20132;-72
2021/09/19 03:06:26;;;;;;;21.70;16.65;;;;;;;;;;6226546;28;20045;-73
2021/09/19 03:09:27;;;;;;;20.38;16.50;;;;;;;;;;6243902;28;20056;-73
2021/09/19 03:12:30;;;;;;;20.50;17.05;;;;;;;;;;6241113;28;20049;-72
2021/09/19 03:15:32;;;;;;;19.52;16.23;;;;;;;;;;6242203;28;20460;-76
2021/09/19 03:18:34;;;;;;;20.10;16.40;;;;;;;;;;6241927;28;20120;-73
2021/09/19 03:21:35;;;;;;;17.52;14.73;;;;;;;;;;6238405;28;20456;-73
2021/09/19 03:24:38;;;;;;;20.08;15.02;;;;;;;;;;6245705;28;20127;-73
2021/09/19 03:27:42;;;;;;;19.30;15.73;;;;;;;;;;6243131;28;20477;-74
2021/09/19 03:30:43;;;;;;;18.85;16.10;;;;;;;;;;6240741;28;20394;-75
2021/09/19 03:33:45;;;;;;;16.67;14.60;;;;;;;;;;6240729;28;20041;-74
2021/09/19 03:36:47;;;;;;;17.58;15.38;;;;;;;;;;6245303;28;20191;-74
2021/09/19 03:39:48;;;;;;;17.95;15.82;;;;;;;;;;6248779;28;20065;-74
2021/09/19 03:42:54;;;;;;;20.65;14.65;;;;;;;;;;6249396;28;20132;-76
2021/09/19 03:45:56;;;;;;;17.30;14.48;;;;;;;;;;6246154;28;20056;-74
2021/09/19 03:48:57;;;;;;;17.25;14.52;;;;;;;;;;6242856;28;20483;-74
2021/09/19 03:51:59;;;;;;;20.55;15.93;;;;;;;;;;6241631;28;20056;-74
2021/09/19 03:55:01;;;;;;;16.80;14.95;;;;;;;;;;6250703;28;20053;-76
2021/09/19 03:58:04;;;;;;;16.02;13.77;;;;;;;;;;6244164;28;20133;-73
2021/09/19 04:01:05;;;;;;;17.38;15.15;;;;;;;;;;6242106;28;20079;-74
2021/09/19 04:04:07;;;;;;;15.65;13.95;;;;;;;;;;6246359;28;20132;-74
2021/09/19 04:07:09;;;;;;;17.10;14.18;;;;;;;;;;6242507;28;20053;-74
2021/09/19 04:10:11;;;;;;;18.58;14.38;;;;;;;;;;6229582;28;20131;-76
2021/09/19 04:13:15;;;;;;;17.50;13.60;;;;;;;;;;6241079;28;20152;-73
2021/09/19 04:16:16;;;;;;;15.00;13.48;;;;;;;;;;6240961;28;20041;-74
2021/09/19 04:19:18;;;;;;;16.33;14.30;;;;;;;;;;6244063;28;20042;-72
2021/09/19 04:22:20;;;;;;;20.00;13.90;;;;;;;;;;6234934;28;20077;-73
2021/09/19 04:25:22;;;;;;;19.48;14.75;;;;;;;;;;6241154;28;20544;-73
2021/09/19 04:28:25;;;;;;;17.63;14.48;;;;;;;;;;6233799;28;20103;-73
2021/09/19 04:31:26;;;;;;;17.48;14.23;;;;;;;;;;6215320;28;20077;-73
2021/09/19 04:34:28;;;;;;;21.27;15.10;;;;;;;;;;6241023;28;20192;-73
2021/09/19 04:37:29;;;;;;;17.88;14.57;;;;;;;;;;6238188;28;20129;-73
2021/09/19 04:40:31;;;;;;;15.88;13.93;;;;;;;;;;6241566;28;20060;-74
2021/09/19 04:43:34;;;;;;;16.45;14.25;;;;;;;;;;6247839;28;20060;-72
2021/09/19 04:46:36;;;;;;;16.85;14.40;;;;;;;;;;6242666;28;20187;-73
2021/09/19 04:49:39;;;;;;;17.17;14.60;;;;;;;;;;6245073;28;20126;-73
2021/09/19 04:52:40;;;;;;;18.63;14.83;;;;;;;;;;6241180;28;20083;-74
2021/09/19 04:55:42;;;;;;;15.50;13.90;;;;;;;;;;6230693;28;20127;-74
2021/09/19 04:58:45;;;;;;;16.90;13.88;;;;;;;;;;6248621;28;20132;-74
2021/09/19 05:01:47;;;;;;;17.75;13.40;;;;;;;;;;6238439;28;20068;-73
2021/09/19 05:04:48;;;;;;;17.00;14.48;;;;;;;;;;6245314;28;20144;-73
2021/09/19 05:07:50;;;;;;;16.08;14.40;;;;;;;;;;6238697;28;20501;-74
2021/09/19 05:10:52;;;;;;;16.25;14.20;;;;;;;;;;6241370;28;20504;-74
2021/09/19 05:13:55;;;;;;;19.92;15.48;;;;;;;;;;6248696;28;20484;-73
2021/09/19 05:16:56;;;;;;;18.67;14.75;;;;;;;;;;6240323;28;20079;-74
2021/09/19 05:19:58;;;;;;;16.20;14.50;;;;;;;;;;6243863;28;20049;-76
2021/09/19 05:23:00;;;;;;;17.23;14.38;;;;;;;;;;6239187;28;20136;-74
2021/09/19 05:26:01;;;;;;;17.30;14.75;;;;;;;;;;6238376;28;20091;-74
2021/09/19 05:29:04;;;;;;;17.15;14.55;;;;;;;;;;6245929;28;21597;-74
2021/09/19 05:32:06;;;;;;;17.23;15.25;;;;;;;;;;6232594;28;20045;-73
2021/09/19 05:35:10;;;;;;;17.88;14.80;;;;;;;;;;6242140;28;20054;-75
2021/09/19 05:38:11;;;;;;;18.85;14.57;;;;;;;;;;6241488;28;20085;-73
2021/09/19 05:41:13;;;;;;;18.70;14.95;;;;;;;;;;6238848;28;20112;-73
2021/09/19 05:44:16;;;;;;;17.67;15.20;;;;;;;;;;6248817;28;20191;-72
2021/09/19 05:47:17;;;;;;;19.85;15.13;;;;;;;;;;6251703;28;20120;-77
2021/09/19 05:50:19;;;;;;;20.30;14.98;;;;;;;;;;6246153;28;20042;-79
2021/09/19 05:53:21;;;;;;;19.70;15.13;;;;;;;;;;6237889;28;20045;-73
2021/09/19 05:56:22;;;;;;;15.80;14.10;;;;;;;;;;6242139;28;20184;-73
2021/09/19 05:59:25;;;;;;;17.40;14.23;;;;;;;;;;6227246;28;20200;-74
2021/09/19 06:02:27;;;;;;;16.25;14.55;;;;;;;;;;6214629;28;20095;-74
2021/09/19 06:05:28;;;;;;;15.88;13.32;;;;;;;;;;6218019;28;20131;-74
2021/09/19 06:08:30;;;;;;;15.57;12.77;;;;;;;;;;6235648;28;20176;-73
2021/09/19 06:11:32;;;;;;;14.48;12.88;;;;;;;;;;6216523;28;20133;-74
2021/09/19 06:14:34;;;;;;;14.68;12.07;;;;;;;;;;6222673;28;20532;-75
2021/09/19 06:17:36;;;;;;;13.93;11.35;;;;;;;;;;6213443;28;20053;-75
2021/09/19 06:20:38;;;;;;;12.93;11.48;;;;;;;;;;6227218;28;20056;-74
2021/09/19 06:23:39;;;;;;;12.68;11.35;;;;;;;;;;6244988;28;20150;-74
2021/09/19 06:26:41;;;;;;;14.38;10.80;;;;;;;;;;6241134;28;20528;-73
2021/09/19 06:29:44;;;;;;;13.75;11.80;;;;;;;;;;6242678;28;20128;-74
2021/09/19 06:32:46;;;;;;;12.15;10.90;;;;;;;;;;6233413;28;20049;-74
2021/09/19 06:35:47;;;;;;;13.27;10.95;;;;;;;;;;6234442;28;20076;-75
2021/09/19 06:38:49;;;;;;;13.43;11.52;;;;;;;;;;6248311;28;20092;-75
2021/09/19 06:41:51;;;;;;;13.60;11.50;;;;;;;;;;6244386;28;20060;-76
2021/09/19 06:44:55;;;;;;;13.23;11.75;;;;;;;;;;6249619;28;20087;-75
2021/09/19 06:47:57;;;;;;;18.33;12.38;;;;;;;;;;6241968;28;20044;-74
2021/09/19 06:50:59;;;;;;;13.68;12.20;;;;;;;;;;6243702;28;20618;-73
2021/09/19 06:54:01;;;;;;;15.25;13.25;;;;;;;;;;6240217;28;20073;-75
2021/09/19 06:57:03;;;;;;;15.13;12.60;;;;;;;;;;6237641;28;20054;-74
2021/09/19 07:00:08;;;;;;;15.80;13.32;;;;;;;;;;6244598;28;20103;-77
2021/09/19 07:03:09;;;;;;;15.20;12.30;;;;;;;;;;6236627;28;20049;-73
2021/09/19 07:06:11;;;;;;;15.00;13.05;;;;;;;;;;6235079;28;20050;-74
2021/09/19 07:09:13;;;;;;;16.73;13.82;;;;;;;;;;6241703;28;20457;-74
2021/09/19 07:12:14;;;;;;;16.05;12.95;;;;;;;;;;6237944;28;20180;-74
2021/09/19 07:15:17;;;;;;;14.70;13.02;;;;;;;;;;6239664;28;20183;-76
2021/09/19 07:18:19;;;;;;;15.32;12.48;;;;;;;;;;6236883;28;20105;-76
2021/09/19 07:21:22;;;;;;;14.52;13.00;;;;;;;;;;6235311;28;20141;-74
2021/09/19 07:24:23;;;;;;;14.85;12.90;;;;;;;;;;6244948;28;20397;-74
2021/09/19 07:27:25;;;;;;;14.52;12.30;;;;;;;;;;6237316;28;20049;-74
2021/09/19 07:30:28;;;;;;;16.75;13.30;;;;;;;;;;6240166;28;20113;-77
2021/09/19 07:33:30;;;;;;;14.02;12.43;;;;;;;;;;6218158;28;20108;-74
2021/09/19 07:36:33;;;;;;;17.85;13.63;;;;;;;;;;6235714;28;20150;-74
2021/09/19 07:39:35;;;;;;;16.47;13.13;;;;;;;;;;6221746;28;20537;-74
2021/09/19 07:42:38;;;;;;;14.23;11.82;;;;;;;;;;6213591;28;20131;-74
2021/09/19 07:45:41;;;;;;;13.27;11.90;;;;;;;;;;6216249;28;20057;-74
2021/09/19 07:48:43;;;;;;;13.05;11.75;;;;;;;;;;6242392;28;20516;-74
2021/09/19 07:51:44;;;;;;;14.25;12.10;;;;;;;;;;6238531;28;20109;-74
2021/09/19 07:54:46;;;;;;;14.80;11.73;;;;;;;;;;6242867;28;20054;-74
2021/09/19 07:57:48;;;;;;;13.95;12.50;;;;;;;;;;6242922;28;20418;-73
2021/09/19 08:00:51;;;;;;;13.52;10.55;;;;;;;;;;6239479;28;20136;-74
2021/09/19 08:03:52;;;;;;;14.85;10.68;;;;;;;;;;6242350;28;20183;-74
2021/09/19 08:06:54;;;;;;;12.85;11.00;;;;;;;;;;6238986;28;20049;-74
2021/09/19 08:09:56;;;;;;;14.15;10.68;;;;;;;;;;6249052;28;20111;-75
2021/09/19 08:12:57;;;;;;;13.45;10.57;;;;;;;;;;6243482;28;20132;-75
2021/09/19 08:16:00;;;;;;;14.13;12.23;;;;;;;;;;6242468;28;20073;-75
2021/09/19 08:19:02;;;;;;;13.02;11.15;;;;;;;;;;6243316;28;20183;-75
2021/09/19 08:22:04;;;;;;;13.63;10.85;;;;;;;;;;6239619;28;20199;-74
2021/09/19 08:25:07;;;;;;;14.32;11.57;;;;;;;;;;6245229;28;20049;-77
2021/09/19 08:28:09;;;;;;;13.77;11.30;;;;;;;;;;6240959;28;20478;-74
2021/09/19 08:31:12;;;;;;;14.70;11.77;;;;;;;;;;6237896;28;20049;-75
2021/09/19 08:34:13;;;;;;;15.00;12.50;;;;;;;;;;6241774;28;20057;-75
2021/09/19 08:37:15;;;;;;;13.65;11.00;;;;;;;;;;6241151;28;20050;-78
2021/09/19 08:40:17;;;;;;;14.43;11.73;;;;;;;;;;6240629;28;20140;-75
2021/09/19 08:43:19;;;;;;;15.35;12.23;;;;;;;;;;6240120;28;20049;-75
2021/09/19 08:46:24;;;;;;;13.35;11.52;;;;;;;;;;6236057;28;20049;-74
2021/09/19 08:49:26;;;;;;;14.20;11.75;;;;;;;;;;6241921;28;20134;-74
2021/09/19 08:52:28;;;;;;;15.25;12.98;;;;;;;;;;6238664;28;20060;-74
2021/09/19 08:55:29;;;;;;;17.48;12.05;;;;;;;;;;6237543;28;20132;-75
2021/09/19 08:58:31;;;;;;;14.70;11.85;;;;;;;;;;6244923;28;20463;-74
2021/09/19 09:01:34;;;;;;;15.45;12.20;;;;;;;;;;6224303;28;20552;-75
2021/09/19 09:04:38;;;;;;;14.20;11.93;;;;;;;;;;6237126;28;20057;-74
2021/09/19 09:07:39;;;;;;;15.00;11.88;;;;;;;;;;6219125;28;20042;-74
2021/09/19 09:10:43;;;;;;;15.95;11.63;;;;;;;;;;6217013;28;20077;-77
2021/09/19 09:13:44;;;;;;;14.55;11.52;;;;;;;;;;6224832;28;20042;-74
2021/09/19 09:16:51;;;;;;;14.07;11.75;;;;;;;;;;6225919;28;20049;-74
2021/09/19 09:19:54;;;;;;;12.73;11.40;;;;;;;;;;6240284;28;20122;-72
2021/09/19 09:22:55;;;;;;;15.15;11.43;;;;;;;;;;6233055;28;20187;-73
2021/09/19 09:26:17;;;;;;;11.50;9.85;;;;;;;;;;6233964;28;20050;-70
2021/09/19 09:29:18;;;;;;;12.27;10.18;;;;;;;;;;6236473;28;20481;-72
2021/09/19 09:32:21;;;;;;;14.52;10.52;;;;;;;;;;6225201;28;20045;-73
2021/09/19 09:35:24;;;;;;;16.02;10.52;;;;;;;;;;6220142;28;20104;-73
2021/09/19 09:38:26;;;;;;;11.33;9.53;;;;;;;;;;6215775;28;20053;-74
2021/09/19 09:41:40;;;;;;;12.18;10.55;;;;;;;;;;6213381;28;20518;-78
2021/09/19 09:44:43;;;;;;;12.68;10.35;;;;;;;;;;6224158;28;20188;-76
2021/09/19 09:47:46;;;;;;;15.15;10.38;;;;;;;;;;6211222;28;20065;-78
2021/09/19 09:50:48;;;;;;;12.15;9.50;;;;;;;;;;6226705;28;20045;-73
2021/09/19 09:53:54;;;;;;;10.82;8.90;;;;;;;;;;6243313;28;20074;-74
2021/09/19 09:56:56;;;;;;;10.73;8.18;;;;;;;;;;6238200;28;20080;-74
2021/09/19 09:59:59;;;;;;;10.35;8.77;;;;;;;;;;6215790;28;20060;-74
2021/09/19 10:03:03;;;;;;;12.05;8.27;;;;;;;;;;6230773;28;20490;-73
2021/09/19 10:06:05;;;;;;;13.88;7.78;;;;;;;;;;6236939;28;20132;-74
2021/09/19 10:09:07;;;;;;;11.63;7.85;;;;;;;;;;6234680;28;20183;-73
2021/09/19 10:12:08;;;;;;;11.20;7.95;;;;;;;;;;6237711;28;20159;-73
2021/09/19 10:15:14;;;;;;;9.88;8.20;;;;;;;;;;6221731;28;20184;-75
2021/09/19 10:18:20;;;;;;;9.48;7.32;;;;;;;;;;6244493;28;20082;-74
2021/09/19 10:21:31;;;;;;;10.55;8.32;;;;;;;;;;6241202;28;20092;-74
2021/09/19 10:24:40;;;;;;;10.73;7.78;;;;;;;;;;6240165;28;20052;-75
2021/09/19 10:27:43;;;;;;;10.13;8.43;;;;;;;;;;6241808;28;20123;-73
2021/09/19 10:31:19;;;;;;;9.70;7.38;;;;;;;;;;6237872;28;20053;-76
2021/09/19 10:34:30;;;;;;;14.30;8.10;;;;;;;;;;6240631;28;20107;-73
2021/09/19 10:37:51;;;;;;;10.57;8.27;;;;;;;;;;6236562;28;20564;-74
2021/09/19 10:41:13;;;;;;;11.27;9.30;;;;;;;;;;6239194;28;20085;-74
2021/09/19 10:44:15;;;;;;;10.05;8.75;;;;;;;;;;6220273;28;20147;-74
2021/09/19 10:47:28;;;;;;;12.80;8.93;;;;;;;;;;6209480;28;20057;-76
2021/09/19 10:50:36;;;;;;;14.00;8.45;;;;;;;;;;6221947;28;20057;-73
2021/09/19 10:53:46;;;;;;;13.13;8.70;;;;;;;;;;6241150;28;20132;-74
2021/09/19 10:56:57;;;;;;;12.93;8.77;;;;;;;;;;6237364;28;20048;-74
2021/09/19 11:00:17;;;;;;;11.38;8.70;;;;;;;;;;6243129;28;20041;-74
2021/09/19 11:03:27;;;;;;;13.52;8.68;;;;;;;;;;6232660;28;20176;-75
2021/09/19 11:06:32;;;;;;;10.65;8.10;;;;;;;;;;6227683;28;20038;-73
2021/09/19 11:09:35;;;;;;;9.85;8.82;;;;;;;;;;6220011;28;20421;-73
2021/09/19 11:12:44;;;;;;;14.00;9.02;;;;;;;;;;6225165;28;20046;-74
2021/09/19 11:15:48;;;;;;;12.98;9.43;;;;;;;;;;6234819;28;20233;-75
2021/09/19 11:18:52;;;;;;;14.82;11.10;;;;;;;;;;6234635;28;20045;-73
2021/09/19 11:21:56;;;;;;;15.85;11.52;;;;;;;;;;6231576;28;20045;-74
2021/09/19 11:24:57;;;;;;;;;;;;;;;;;;6240493;28;20096;-74
2021/09/19 11:27:59;;;;;;;22.23;15.18;;;;;;;;;;6235690;28;19928;-74
2021/09/19 11:31:01;;;;;;;14.85;6.00;;;;;;;;;;6229228;28;20455;-77
2021/09/19 11:34:05;;;;;;;102.07;6.93;;;;;;;;;;6248605;28;20045;-73
2021/09/19 11:37:09;;;;;;;;;;;;;;;;;;6241555;28;20072;-74
2021/09/19 11:40:23;;;;;;;105.88;9.55;;;;;;;;;;6245154;28;19948;-78
2021/09/19 11:43:24;;;;;;;15.05;9.00;;;;;;;;;;6243183;28;20132;-76
2021/09/19 11:46:27;;;;;;;21.10;10.30;;;;;;;;;;6238462;28;20696;-76
2021/09/19 11:49:29;;;;;;;18.23;8.65;;;;;;;;;;6245330;28;20047;-79
2021/09/19 11:52:32;;;;;;;15.88;9.50;;;;;;;;;;6222840;28;20130;-76
2021/09/19 11:55:34;;;;;;;10.05;6.32;;;;;;;;;;6223842;28;20778;-75
2021/09/19 11:58:35;;;;;;;14.77;7.70;;;;;;;;;;6222742;28;21539;-75
2021/09/19 12:01:39;;;;;;;21.63;11.02;;;;;;;;;;6212081;28;20042;-78
2021/09/19 12:04:42;;;;;;;30.27;16.80;;;;;;;;;;6217012;28;20127;-75
2021/09/19 12:07:45;;;;;;;14.65;12.60;;;;;;;;;;6230740;28;20143;-75
2021/09/19 12:10:47;;;;;;;13.50;9.50;;;;;;;;;;6238654;28;20505;-75
2021/09/19 12:13:50;;;;;;;8.38;6.57;;;;;;;;;;6219846;28;20261;-75
2021/09/19 12:17:01;;;;;;;6.60;5.72;;;;;;;;;;6215340;28;20042;-74
2021/09/19 12:20:07;;;;;;;7.97;6.45;;;;;;;;;;6238900;28;20128;-75
2021/09/19 12:23:17;;;;;;;11.00;7.95;;;;;;;;;;6229012;28;20139;-74
2021/09/19 12:26:21;;;;;;;11.20;8.10;;;;;;;;;;6235818;28;20069;-74
2021/09/19 12:29:23;;;;;;;8.35;7.47;;;;;;;;;;6199470;28;20041;-74
2021/09/19 12:32:33;;;;;;;7.10;6.30;;;;;;;;;;6205899;28;20046;-74
2021/09/19 12:35:35;;;;;;;9.00;5.28;;;;;;;;;;6223331;28;20066;-74
2021/09/19 12:38:45;;;;;;;5.35;3.80;;;;;;;;;;6243428;28;20136;-75
2021/09/19 12:41:49;;;;;;;7.10;4.40;;;;;;;;;;6245461;28;20180;-74
2021/09/19 12:44:51;;;;;;;5.93;4.28;;;;;;;;;;6231887;28;20506;-74
2021/09/19 12:47:53;;;;;;;4.57;4.15;;;;;;;;;;6205512;28;20664;-75
2021/09/19 12:50:57;;;;;;;5.13;3.37;;;;;;;;;;6233812;28;20072;-74
2021/09/19 12:54:00;;;;;;;3.83;2.90;;;;;;;;;;6240663;28;20058;-75
2021/09/19 12:57:02;;;;;;;3.30;3.00;;;;;;;;;;6216489;28;20140;-74
2021/09/19 13:00:05;;;;;;;3.03;2.45;;;;;;;;;;6220737;28;20088;-75
2021/09/19 13:03:08;;;;;;;2.28;2.08;;;;;;;;;;6225226;28;20065;-74
2021/09/19 13:06:11;;;;;;;14.63;10.20;;;;;;;;;;6216809;28;20050;-76
2021/09/19 13:09:14;;;;;;;9.80;6.38;;;;;;;;;;6236614;28;20042;-76
2021/09/19 13:12:15;;;;;;;2.65;1.58;;;;;;;;;;6232626;28;20050;-78
2021/09/19 13:15:19;;;;;;;2.20;1.23;;;;;;;;;;6235772;28;20132;-76
2021/09/19 13:18:21;;;;;;;1.92;1.20;;;;;;;;;;6227570;28;20050;-76
2021/09/19 13:21:23;;;;;;;3.47;1.13;;;;;;;;;;6235230;28;20065;-76
2021/09/19 13:24:25;;;;;;;1.95;1.10;;;;;;;;;;6240632;28;20080;-75
2021/09/19 13:27:27;;;;;;;2.88;1.20;;;;;;;;;;6234100;28;20049;-76
2021/09/19 13:30:30;;;;;;;2.88;1.25;;;;;;;;;;6232966;28;20049;-78
2021/09/19 13:33:32;;;;;;;1.40;1.10;;;;;;;;;;6225031;28;20633;-77
2021/09/19 13:36:34;;;;;;;1.93;1.00;;;;;;;;;;6246878;28;20069;-76
2021/09/19 13:39:37;;;;;;;3.63;1.00;;;;;;;;;;6235639;28;20049;-76
2021/09/19 13:42:38;;;;;;;1.33;0.80;;;;;;;;;;6236088;28;20050;-76
2021/09/19 13:45:40;;;;;;;8.60;1.20;;;;;;;;;;6230980;28;20211;-75
2021/09/19 13:48:42;;;;;;;2.33;1.23;;;;;;;;;;6225041;28;20141;-76
2021/09/19 13:51:43;;;;;;;1.98;1.33;;;;;;;;;;6213625;28;20587;-76
2021/09/19 13:54:46;;;;;;;2.90;1.17;;;;;;;;;;6219628;28;20087;-76
2021/09/19 13:57:48;;;;;;;;;;;;;;;;;;6219984;28;20127;-77
2021/09/19 14:00:50;;;;;;;2.22;1.25;;;;;;;;;;6234979;28;20036;-76
2021/09/19 14:03:51;;;;;;;1.65;0.80;;;;;;;;;;6237300;28;20052;-75
2021/09/19 14:06:53;;;;;;;3.03;1.02;;;;;;;;;;6238746;28;20132;-75
2021/09/19 14:09:56;;;;;;;2.77;1.13;;;;;;;;;;6243906;28;20109;-75
2021/09/19 14:12:58;;;;;;;3.17;1.00;;;;;;;;;;6238910;28;20187;-76
2021/09/19 14:16:00;;;;;;;2.13;1.15;;;;;;;;;;6238814;28;20045;-76
2021/09/19 14:19:04;;;;;;;2.65;0.98;;;;;;;;;;6239037;28;20597;-75
2021/09/19 14:22:05;;;;;;;2.15;0.80;;;;;;;;;;6210079;28;20049;-76
2021/09/19 14:25:09;;;;;;;2.70;0.90;;;;;;;;;;6214367;28;20181;-79
2021/09/19 14:28:12;;;;;;;2.15;1.15;;;;;;;;;;6232975;28;20045;-78
2021/09/19 14:31:14;;;;;;;1.83;1.33;;;;;;;;;;6231622;28;20820;-75
2021/09/19 14:34:16;;;;;;;2.63;1.08;;;;;;;;;;6243616;28;20080;-75
2021/09/19 14:37:17;;;;;;;2.15;0.93;;;;;;;;;;6231570;28;20052;-75
2021/09/19 14:40:21;;;;;;;1.15;0.82;;;;;;;;;;6236937;28;20180;-76
2021/09/19 14:43:23;;;;;;;0.98;0.70;;;;;;;;;;6238292;28;20085;-76
2021/09/19 14:46:24;;;;;;;0.80;0.70;;;;;;;;;;6228215;28;20827;-75
2021/09/19 14:49:26;;;;;;;2.03;1.10;;;;;;;;;;6237601;28;20575;-75
2021/09/19 14:52:27;;;;;;;1.45;1.05;;;;;;;;;;6234179;28;20120;-74
2021/09/19 14:55:30;;;;;;;1.63;0.80;;;;;;;;;;6236070;28;20048;-77
2021/09/19 14:58:32;;;;;;;1.48;0.73;;;;;;;;;;6208312;28;20052;-75
2021/09/19 15:01:34;;;;;;;1.17;0.77;;;;;;;;;;6194490;28;20116;-76
2021/09/19 15:04:35;;;;;;;2.45;0.90;;;;;;;;;;6213235;28;20446;-74
2021/09/19 15:07:37;;;;;;;1.90;1.17;;;;;;;;;;6203848;28;20128;-73
2021/09/19 15:10:40;;;;;;;4.10;1.10;;;;;;;;;;6210987;28;20064;-73
2021/09/19 15:13:43;;;;;;;1.25;0.80;;;;;;;;;;6215383;28;20569;-74
2021/09/19 15:16:45;;;;;;;1.23;0.60;;;;;;;;;;6201689;28;20725;-74
2021/09/19 15:19:46;;;;;;;0.70;0.50;;;;;;;;;;6208392;28;20050;-73
2021/09/19 15:22:48;;;;;;;1.67;0.60;;;;;;;;;;6204727;28;20037;-76
2021/09/19 15:25:51;;;;;;;1.77;0.60;;;;;;;;;;6209543;28;20045;-77
2021/09/19 15:28:53;;;;;;;;;;;;;;;;;;6212461;28;20506;-73
2021/09/19 15:31:54;;;;;;;1.15;0.70;;;;;;;;;;6204728;28;20059;-73
2021/09/19 15:34:56;;;;;;;1.70;0.50;;;;;;;;;;6210190;28;20538;-77
2021/09/19 15:37:58;;;;;;;0.90;0.50;;;;;;;;;;6207472;28;20180;-73
2021/09/19 15:41:09;;;;;;;0.65;0.50;;;;;;;;;;6204846;28;20460;-73
2021/09/19 15:44:10;;;;;;;0.80;0.50;;;;;;;;;;6232829;28;20057;-73
2021/09/19 15:47:12;;;;;;;2.47;0.60;;;;;;;;;;6228891;28;20508;-73
2021/09/19 15:50:14;;;;;;;0.70;0.65;;;;;;;;;;6233468;28;20071;-78
2021/09/19 15:53:15;;;;;;;0.75;0.60;;;;;;;;;;6234846;28;20346;-75
2021/09/19 15:56:19;;;;;;;2.60;1.15;;;;;;;;;;6213029;28;20135;-76
2021/09/19 15:59:21;;;;;;;2.58;1.77;;;;;;;;;;6227390;28;20115;-73
2021/09/19 16:02:22;;;;;;;3.90;0.60;;;;;;;;;;6221003;28;20130;-72
2021/09/19 16:05:24;;;;;;;1.38;0.50;;;;;;;;;;6218853;28;20042;-79
2021/09/19 16:08:26;;;;;;;1.37;0.60;;;;;;;;;;6207761;28;20744;-74
2021/09/19 16:11:28;;;;;;;1.00;0.57;;;;;;;;;;6227173;28;20049;-73
2021/09/19 16:14:31;;;;;;;1.00;0.50;;;;;;;;;;6244297;28;20053;-73
2021/09/19 16:17:32;;;;;;;1.50;0.93;;;;;;;;;;6228995;28;20804;-73
2021/09/19 16:20:35;;;;;;;1.15;0.90;;;;;;;;;;6234014;28;20049;-76
2021/09/19 16:23:36;;;;;;;1.50;0.77;;;;;;;;;;6241206;28;20053;-73
2021/09/19 16:26:39;;;;;;;1.45;0.60;;;;;;;;;;6236125;28;20286;-74
2021/09/19 16:29:41;;;;;;;1.67;1.15;;;;;;;;;;6243426;28;20165;-73
2021/09/19 16:32:42;;;;;;;1.33;0.70;;;;;;;;;;6232410;28;20823;-76
2021/09/19 16:35:44;;;;;;;1.43;1.07;;;;;;;;;;6232363;28;20042;-78
2021/09/19 16:38:46;;;;;;;1.10;0.98;;;;;;;;;;6242921;28;20046;-73
2021/09/19 16:41:48;;;;;;;1.73;0.80;;;;;;;;;;6239397;28;20038;-74
2021/09/19 16:44:51;;;;;;;0.95;0.80;;;;;;;;;;6247804;28;20072;-76
2021/09/19 16:47:53;;;;;;;0.75;0.63;;;;;;;;;;6228214;28;20053;-73
2021/09/19 16:50:55;;;;;;;1.40;0.77;;;;;;;;;;6232881;28;20159;-74
2021/09/19 16:53:56;;;;;;;1.23;0.82;;;;;;;;;;6241622;28;20168;-73
2021/09/19 16:57:00;;;;;;;1.52;0.82;;;;;;;;;;6230203;28;20049;-74
2021/09/19 17:00:01;;;;;;;116.40;9.88;;;;;;;;;;6235197;28;20521;-76
2021/09/19 17:03:03;;;;;;;22.73;3.33;;;;;;;;;;6224330;28;20468;-77
2021/09/19 17:06:04;;;;;;;12.60;1.33;;;;;;;;;;6231970;28;20529;-73
2021/09/19 17:09:06;;;;;;;3.92;0.90;;;;;;;;;;6240531;28;20860;-79
2021/09/19 17:12:09;;;;;;;2.25;1.05;;;;;;;;;;6234803;28;20115;-74
2021/09/19 17:15:12;;;;;;;1.02;0.88;;;;;;;;;;6235631;28;20044;-80
2021/09/19 17:18:13;;;;;;;1.17;0.70;;;;;;;;;;6230704;28;20479;-73
2021/09/19 17:21:15;;;;;;;1.30;0.70;;;;;;;;;;6237170;28;20468;-73
2021/09/19 17:24:16;;;;;;;1.48;0.65;;;;;;;;;;6243568;28;20061;-73
2021/09/19 17:27:19;;;;;;;0.90;0.70;;;;;;;;;;6237607;28;20136;-72
2021/09/19 17:30:21;;;;;;;0.80;0.70;;;;;;;;;;6241370;28;20049;-82
2021/09/19 17:33:23;;;;;;;1.13;0.80;;;;;;;;;;6237807;28;20050;-81
2021/09/19 17:36:25;;;;;;;2.20;0.80;;;;;;;;;;6237309;28;20358;-73
2021/09/19 17:39:26;;;;;;;1.58;0.80;;;;;;;;;;6241231;28;20037;-75
2021/09/19 17:42:29;;;;;;;2.08;1.00;;;;;;;;;;6238355;28;20172;-73
2021/09/19 17:45:33;;;;;;;2.35;0.70;;;;;;;;;;6239976;28;20068;-80
2021/09/19 17:48:35;;;;;;;1.98;1.27;;;;;;;;;;6243327;28;20112;-78
2021/09/19 17:51:37;;;;;;;2.17;1.08;;;;;;;;;;6223279;28;20041;-72
2021/09/19 17:54:38;;;;;;;1.73;0.90;;;;;;;;;;6220888;28;20085;-81
2021/09/19 17:57:41;;;;;;;1.08;0.80;;;;;;;;;;6214809;28;20054;-73